Wye, United Kingdom
Current Conditions -  °F | °C
As of 12:20 PM on Thursday 18 Dec 2014 (Local Time) from EGMD Reporting Station
Drizzle Drizzle  
Wind Chill: 54°   Ceiling: 700
Heat Index: 54°   Visibility: 6mi
Dew Point: 54°   Wind: 26mph
Humidity: 100%   Direction: 250°WSW
Pressure: 29.91"   Gusts: NA
Location:  51.18°N, 0.94°E
Report Text: EGMD 181220Z 25023KT 9999 -DZ BKN007 12/12 Q1013
Loading
Personal Weather Stations






























Interactive Weather Map New forecast layout! Learn more

10-Day Weather Forecast

Advertisements
Track Severe Weather on mobile